Dades meteomassalio
Diari Summary for Juliol 24, 2017 Units:  Metric    English   Both
« Previous Day
Next Day »
Diari Semanal Mensual Anual Personalitzat
  Maxima: Minima: Mijana:
Temperatura: -17.8 °C -7.1 °C -4.7 °C
Rosada: -17.8 °C -11.3 °C -9.9 °C
Humitat: Humidity % 36 % 57 %
Velocitat del vent: 0 km/h 0 km/h 47.8 km/h
Racha vent: 0 km/h - -
Vent:- - WNW
Pressio: 0 hPa 34384.8 hPa -
Pluja: 0 mm    
Historical Graphs
 
 
Tabular Data for Juliol 24, 2017
Time Temperature Dew Point Pressure Wind Wind Speed Wind Gust Humidity Rainfall Rate (Hourly) solar Conditions
-17.8 °C -17.8 °C 0 hPa Calm     Humidity % 0 mm SolarRadiationWatts/m^2 W/m2 Conditions
00:04 -6.9 °C -7.9 °C 34442.4 hPa Calm     89 % 0 mm 0.0 W/m2 RA
00:09 -6.9 °C -7.9 °C 34442.4 hPa Calm     89 % 0 mm 0.0 W/m2 CLR
00:14 -6.8 °C -7.9 °C 34442.4 hPa Calm     89 % 0 mm 0.0 W/m2 CLR
00:19 -6.8 °C -7.9 °C 34442.4 hPa Calm     88 % 0 mm 0.0 W/m2 CLR
00:24 -6.8 °C -7.9 °C 34442.4 hPa Calm     88 % 0 mm 0.0 W/m2 CLR
00:29 -6.8 °C -8 °C 34452.6 hPa Calm     87 % 0 mm 0.0 W/m2 CLR
00:34 -6.8 °C -8.1 °C 34452.6 hPa Calm     86 % 0 mm 0.0 W/m2 CLR
00:39 -6.7 °C -8.2 °C 34452.6 hPa Calm     85 % 0 mm 0.0 W/m2 CLR
00:44 -6.6 °C -8.2 °C 34452.6 hPa Calm     84 % 0 mm 0.0 W/m2 CLR
00:49 -6.5 °C -8.6 °C 34452.6 hPa WNW 15 km/h 15 km/h 79 % 0 mm 0.0 W/m2 CLR
00:54 -5.9 °C -9.1 °C 34462.7 hPa WNW 26.9 km/h 26.9 km/h 70 % 0 mm 0.0 W/m2 CLR
00:59 -5.4 °C -9.1 °C 34462.7 hPa WNW 20.9 km/h 20.9 km/h 66 % 0 mm 0.0 W/m2 CLR
01:04 -5.2 °C -9.2 °C 34462.7 hPa WNW 23.8 km/h 23.8 km/h 64 % 0 mm 0.0 W/m2 CLR
01:09 -5.2 °C -9.3 °C 34462.7 hPa West 31.1 km/h 31.1 km/h 63 % 0 mm 0.0 W/m2 CLR
01:14 -5.1 °C -9.8 °C 34462.7 hPa WNW 41.4 km/h 41.4 km/h 59 % 0 mm 0.0 W/m2 CLR
01:19 -5.1 °C -10.1 °C 34462.7 hPa WNW 31.1 km/h 31.1 km/h 57 % 0 mm 0.0 W/m2 CLR
01:24 -5.2 °C -10.3 °C 34462.7 hPa West 44.1 km/h 44.1 km/h 56 % 0 mm 0.0 W/m2 CLR
01:29 -5.3 °C -10.4 °C 34462.7 hPa West 38.8 km/h 38.8 km/h 56 % 0 mm 0.0 W/m2 CLR
01:34 -5.3 °C -10.4 °C 34462.7 hPa WSW 38.8 km/h 38.8 km/h 56 % 0 mm 0.0 W/m2 CLR
01:39 -5.4 °C -10.5 °C 34462.7 hPa West 46.7 km/h 46.7 km/h 56 % 0 mm 0.0 W/m2 CLR
01:44 -5.4 °C -10.6 °C 34462.7 hPa West 41.7 km/h 41.7 km/h 56 % 0 mm 0.0 W/m2 CLR
01:49 -5.6 °C -10.5 °C 34462.7 hPa West 32.8 km/h 32.8 km/h 57 % 0 mm 0.0 W/m2 CLR
01:54 -5.7 °C -10.4 °C 34462.7 hPa WNW 41.7 km/h 41.7 km/h 58 % 0 mm 0.0 W/m2 CLR
02:04 -5.8 °C -10.6 °C 34462.7 hPa WNW 29.8 km/h 29.8 km/h 58 % 0 mm 0.0 W/m2 CLR
02:10 -5.8 °C -10.7 °C 34462.7 hPa WNW 44.7 km/h 44.7 km/h 57 % 0 mm 0.0 W/m2 CLR
02:15 -5.8 °C -10.6 °C 34476.3 hPa WNW 32.8 km/h 32.8 km/h 58 % 0 mm 0.0 W/m2 CLR
02:20 -5.8 °C -10.6 °C 34462.7 hPa WNW 17.9 km/h 17.9 km/h 58 % 0 mm 0.0 W/m2 CLR
02:25 -5.9 °C -10.6 °C 34462.7 hPa WNW 33.6 km/h 33.6 km/h 59 % 0 mm 0.0 W/m2 CLR
02:30 -5.9 °C -10.6 °C 34462.7 hPa West 32.8 km/h 32.8 km/h 59 % 0 mm 0.0 W/m2 CLR
02:35 -5.9 °C -10.4 °C 34462.7 hPa WNW 41.7 km/h 41.7 km/h 60 % 0 mm 0.0 W/m2 CLR
02:40 -5.9 °C -10.4 °C 34462.7 hPa WNW 41.7 km/h 41.7 km/h 60 % 0 mm 0.0 W/m2 CLR
02:45 -6 °C -10.4 °C 34462.7 hPa WNW 18.2 km/h 18.2 km/h 60 % 0 mm 0.0 W/m2 CLR
02:50 -6.1 °C -10.4 °C 34462.7 hPa WNW 29.8 km/h 29.8 km/h 61 % 0 mm 0.0 W/m2 CLR
02:55 -6.1 °C -10.4 °C 34462.7 hPa WNW 35.7 km/h 35.7 km/h 61 % 0 mm 0.0 W/m2 CLR
03:00 -6.1 °C -10.4 °C 34462.7 hPa WNW 32.8 km/h 32.8 km/h 61 % 0 mm 0.0 W/m2 CLR
03:05 -6.2 °C -10.4 °C 34462.7 hPa West 41.4 km/h 41.4 km/h 62 % 0 mm 0.0 W/m2 CLR
03:10 -6.2 °C -10.4 °C 34452.6 hPa West 33.6 km/h 33.6 km/h 62 % 0 mm 0.0 W/m2 CLR
03:15 -6.2 °C -10.5 °C 34452.6 hPa WNW 32.8 km/h 32.8 km/h 61 % 0 mm 0.0 W/m2 CLR
03:20 -6.2 °C -10.5 °C 34462.7 hPa NW 38.8 km/h 38.8 km/h 61 % 0 mm 0.0 W/m2 CLR
03:25 -6.2 °C -10.4 °C 34452.6 hPa West 26.9 km/h 26.9 km/h 62 % 0 mm 0.0 W/m2 CLR
03:30 -6.3 °C -10.4 °C 34462.7 hPa WNW 47.6 km/h 47.6 km/h 62 % 0 mm 0.0 W/m2 CLR
03:35 -6.3 °C -10.4 °C 34452.6 hPa West 35.7 km/h 35.7 km/h 63 % 0 mm 0.0 W/m2 CLR
03:40 -6.3 °C -10.4 °C 34452.6 hPa West 29.8 km/h 29.8 km/h 63 % 0 mm 0.0 W/m2 CLR
03:45 -6.3 °C -10.3 °C 34452.6 hPa West 31.1 km/h 31.1 km/h 64 % 0 mm 0.0 W/m2 CLR
03:50 -6.4 °C -10.3 °C 34452.6 hPa West 38.8 km/h 38.8 km/h 64 % 0 mm 0.0 W/m2 CLR
03:55 -6.4 °C -10.3 °C 34452.6 hPa West 33.6 km/h 33.6 km/h 64 % 0 mm 0.0 W/m2 CLR
04:00 -6.4 °C -10.2 °C 34452.6 hPa West 44.7 km/h 44.7 km/h 65 % 0 mm 0.0 W/m2 CLR
04:05 -6.4 °C -10.2 °C 34452.6 hPa WSW 47.6 km/h 47.6 km/h 65 % 0 mm 0.0 W/m2 CLR
04:10 -6.5 °C -10.2 °C 34452.6 hPa West 35.7 km/h 35.7 km/h 66 % 0 mm 0.0 W/m2 CLR
04:15 -6.6 °C -10.2 °C 34462.7 hPa WNW 29.8 km/h 29.8 km/h 66 % 0 mm 0.0 W/m2 CLR
04:20 -6.6 °C -10.2 °C 34462.7 hPa West 32.8 km/h 32.8 km/h 67 % 0 mm 0.0 W/m2 CLR
04:25 -6.7 °C -10.1 °C 34462.7 hPa West 17.9 km/h 17.9 km/h 68 % 0 mm 0.0 W/m2 CLR
04:30 -6.7 °C -10.1 °C 34462.7 hPa West 15 km/h 15 km/h 68 % 0 mm 0.0 W/m2 CLR
04:35 -6.7 °C -10.1 °C 34462.7 hPa West 17.9 km/h 17.9 km/h 68 % 0 mm 0.0 W/m2 CLR
04:40 -6.7 °C -10.1 °C 34462.7 hPa West 32.8 km/h 32.8 km/h 68 % 0 mm 0.0 W/m2 CLR
04:45 -6.8 °C -10 °C 34462.7 hPa WSW 10.3 km/h 10.3 km/h 69 % 0 mm 0.0 W/m2 CLR
04:50 -6.8 °C -10.1 °C 34462.7 hPa West 32.8 km/h 32.8 km/h 69 % 0 mm 0.0 W/m2 CLR
04:55 -6.8 °C -9.9 °C 34462.7 hPa WNW 11.9 km/h 11.9 km/h 70 % 0 mm 0.0 W/m2 CLR
05:00 -6.8 °C -9.9 °C 34462.7 hPa West 23.8 km/h 23.8 km/h 70 % 0 mm 0.0 W/m2 CLR
05:05 -6.8 °C -9.9 °C 34462.7 hPa West 26.9 km/h 26.9 km/h 70 % 0 mm 0.0 W/m2 CLR
05:10 -6.9 °C -9.9 °C 34462.7 hPa West 11.9 km/h 11.9 km/h 71 % 0 mm 0.0 W/m2 CLR
05:15 -6.9 °C -9.9 °C 34462.7 hPa Calm     71 % 0 mm 0.0 W/m2 CLR
05:20 -7 °C -9.8 °C 34462.7 hPa SW 9 km/h 9 km/h 72 % 0 mm 0.0 W/m2 CLR
05:25 -7 °C -9.8 °C 34462.7 hPa West 29.8 km/h 29.8 km/h 72 % 0 mm 0.0 W/m2 CLR
05:30 -7 °C -9.8 °C 34462.7 hPa West 23.8 km/h 23.8 km/h 72 % 0 mm 0.0 W/m2 CLR
05:35 -7 °C -9.8 °C 34462.7 hPa West 23.8 km/h 23.8 km/h 72 % 0 mm 0.0 W/m2 CLR
05:40 -7 °C -9.8 °C 34462.7 hPa West 29.8 km/h 29.8 km/h 72 % 0 mm 0.0 W/m2 CLR
05:45 -7 °C -9.7 °C 34462.7 hPa West 29.8 km/h 29.8 km/h 73 % 0 mm 0.0 W/m2 CLR
05:50 -7 °C -9.8 °C 34462.7 hPa WSW 33.6 km/h 33.6 km/h 73 % 0 mm 0.0 W/m2 CLR
05:55 -6.9 °C -9.7 °C 34462.7 hPa WSW 38.8 km/h 38.8 km/h 73 % 0 mm 0.0 W/m2 CLR
06:00 -7 °C -9.7 °C 34462.7 hPa West 26.9 km/h 26.9 km/h 73 % 0 mm 0.0 W/m2 CLR
06:05 -7 °C -9.7 °C 34462.7 hPa West 32.8 km/h 32.8 km/h 73 % 0 mm 0.0 W/m2 CLR
06:10 -7 °C -9.8 °C 34462.7 hPa WSW 31.1 km/h 31.1 km/h 73 % 0 mm 0.0 W/m2 CLR
06:15 -7 °C -9.7 °C 34462.7 hPa SW 41.7 km/h 41.7 km/h 73 % 0 mm 0.0 W/m2 CLR
06:20 -7 °C -9.7 °C 34462.7 hPa WSW 41.7 km/h 41.7 km/h 73 % 0 mm 0.0 W/m2 CLR
06:25 -7 °C -9.8 °C 34462.7 hPa West 25.9 km/h 25.9 km/h 73 % 0 mm 0.0 W/m2 CLR
06:30 -7.1 °C -9.7 °C 34462.7 hPa West 31.1 km/h 31.1 km/h 74 % 0 mm 0.0 W/m2 CLR
06:32 -7.1 °C -9.7 °C 34462.7 hPa West 25.9 km/h 25.9 km/h 74 % 0 mm 0.0 W/m2 CLR
06:37 -7.1 °C -9.7 °C 34462.7 hPa West 35.7 km/h 35.7 km/h 74 % 0 mm 0.0 W/m2 OVC
06:42 -7.1 °C -9.7 °C 34462.7 hPa West 41.4 km/h 41.4 km/h 74 % 0 mm 0.0 W/m2 OVC
06:47 -7.1 °C -9.7 °C 34462.7 hPa West 32.8 km/h 32.8 km/h 74 % 0 mm 0.0 W/m2 OVC
06:52 -7.1 °C -9.7 °C 34462.7 hPa West 29.8 km/h 29.8 km/h 74 % 0 mm 5.0 W/m2 OVC
06:57 -7.1 °C -9.7 °C 34462.7 hPa West 38.8 km/h 38.8 km/h 74 % 0 mm 9.0 W/m2 BKN
07:02 -7.1 °C -9.6 °C 34462.7 hPa West 38.8 km/h 38.8 km/h 75 % 0 mm 11.0 W/m2 BKN
07:07 -7.1 °C -9.6 °C 34462.7 hPa WSW 23.8 km/h 23.8 km/h 75 % 0 mm 14.0 W/m2 BKN
07:12 -7.1 °C -9.7 °C 34462.7 hPa SW 11.9 km/h 11.9 km/h 74 % 0 mm 16.0 W/m2 BKN
07:17 -7.1 °C -9.6 °C 34462.7 hPa SW 11.9 km/h 11.9 km/h 75 % 0 mm 19.0 W/m2 BKN
07:22 -7.1 °C -9.6 °C 34462.7 hPa SW 11.9 km/h 11.9 km/h 75 % 0 mm 25.0 W/m2 BKN
07:27 -7.1 °C -9.6 °C 34462.7 hPa SW 31.1 km/h 31.1 km/h 75 % 0 mm 30.0 W/m2 BKN
07:32 -7.1 °C -9.6 °C 34462.7 hPa West 18.2 km/h 18.2 km/h 75 % 0 mm 40.0 W/m2 BKN
07:37 -7 °C -9.6 °C 34462.7 hPa West 20.9 km/h 20.9 km/h 75 % 0 mm 53.0 W/m2 SCT
07:42 -6.9 °C -9.5 °C 34462.7 hPa West 15 km/h 15 km/h 75 % 0 mm 63.0 W/m2 SCT
07:47 -6.9 °C -9.4 °C 34462.7 hPa WSW 29.8 km/h 29.8 km/h 75 % 0 mm 76.0 W/m2 FEW
07:52 -6.8 °C -9.5 °C 34462.7 hPa West 29.8 km/h 29.8 km/h 74 % 0 mm 88.0 W/m2 FEW
07:57 -6.8 °C -9.4 °C 34462.7 hPa West 31.1 km/h 31.1 km/h 74 % 0 mm 102.0 W/m2 CLR
08:02 -6.8 °C -9.4 °C 34462.7 hPa West 26.9 km/h 26.9 km/h 74 % 0 mm 121.0 W/m2 CLR
08:07 -6.7 °C -9.3 °C 34462.7 hPa West 32.8 km/h 32.8 km/h 74 % 0 mm 137.0 W/m2 CLR
08:12 -6.6 °C -9.3 °C 34462.7 hPa West 41.7 km/h 41.7 km/h 74 % 0 mm 155.0 W/m2 CLR
08:17 -6.5 °C -9.3 °C 34462.7 hPa WSW 35.7 km/h 35.7 km/h 73 % 0 mm 172.0 W/m2 CLR
08:22 -6.4 °C -9.2 °C 34462.7 hPa West 26.9 km/h 26.9 km/h 73 % 0 mm 188.0 W/m2 CLR
08:27 -6.3 °C -9.1 °C 34462.7 hPa WNW 50.7 km/h 50.7 km/h 73 % 0 mm 207.0 W/m2 CLR
08:32 -6.3 °C -9.2 °C 34462.7 hPa WNW 62.6 km/h 62.6 km/h 72 % 0 mm 225.0 W/m2 CLR
08:37 -6.2 °C -9.1 °C 34462.7 hPa West 47.6 km/h 47.6 km/h 72 % 0 mm 243.0 W/m2 CLR
08:42 -6.2 °C -9.2 °C 34462.7 hPa WNW 53.6 km/h 53.6 km/h 71 % 0 mm 257.0 W/m2 CLR
08:47 -6.1 °C -9.1 °C 34462.7 hPa West 46.7 km/h 46.7 km/h 71 % 0 mm 279.0 W/m2 CLR
08:52 -6.1 °C -9.1 °C 34462.7 hPa WNW 59.5 km/h 59.5 km/h 71 % 0 mm 292.0 W/m2 CLR
08:57 -6 °C -9.1 °C 34462.7 hPa WNW 56.6 km/h 56.6 km/h 70 % 0 mm 304.0 W/m2 CLR
09:02 -5.9 °C -9.1 °C 34462.7 hPa WNW 68.6 km/h 68.6 km/h 70 % 0 mm 316.0 W/m2 CLR
09:07 -5.9 °C -9.1 °C 34462.7 hPa WNW 50.7 km/h 50.7 km/h 70 % 0 mm 271.0 W/m2 CLR
09:12 -5.9 °C -9.1 °C 34462.7 hPa WNW 44.7 km/h 44.7 km/h 70 % 0 mm 348.0 W/m2 CLR
09:17 -5.7 °C -8.9 °C 34462.7 hPa WNW 50.7 km/h 50.7 km/h 70 % 0 mm 366.0 W/m2 CLR
09:22 -5.7 °C -9 °C 34462.7 hPa WNW 54.4 km/h 54.4 km/h 69 % 0 mm 385.0 W/m2 CLR
09:27 -5.6 °C -8.9 °C 34462.7 hPa WNW 50.7 km/h 50.7 km/h 69 % 0 mm 397.0 W/m2 CLR
09:32 -5.6 °C -9 °C 34462.7 hPa WNW 56.6 km/h 56.6 km/h 68 % 0 mm 410.0 W/m2 CLR
09:37 -5.5 °C -8.9 °C 34462.7 hPa WNW 53.6 km/h 53.6 km/h 68 % 0 mm 429.0 W/m2 CLR
09:42 -5.4 °C -8.8 °C 34462.7 hPa WNW 44.7 km/h 44.7 km/h 68 % 0 mm 436.0 W/m2 CLR
09:47 -5.4 °C -8.9 °C 34462.7 hPa NW 59.5 km/h 59.5 km/h 67 % 0 mm 452.0 W/m2 CLR
09:52 -5.3 °C -8.9 °C 34476.3 hPa NW 50.7 km/h 50.7 km/h 67 % 0 mm 478.0 W/m2 CLR
09:57 -5.3 °C -8.8 °C 34462.7 hPa WNW 46.7 km/h 46.7 km/h 67 % 0 mm 374.0 W/m2 CLR
10:02 -5.2 °C -8.8 °C 34462.7 hPa WNW 47.6 km/h 47.6 km/h 67 % 0 mm 499.0 W/m2 CLR
10:07 -5.1 °C -8.8 °C 34462.7 hPa WNW 47.6 km/h 47.6 km/h 66 % 0 mm 519.0 W/m2 CLR
10:12 -5 °C -8.8 °C 34462.7 hPa NNW 62.6 km/h 62.6 km/h 65 % 0 mm 541.0 W/m2 CLR
10:17 -4.9 °C -8.8 °C 34462.7 hPa NW 50.7 km/h 50.7 km/h 65 % 0 mm 554.0 W/m2 CLR
10:22 -4.8 °C -8.8 °C 34462.7 hPa NW 41.7 km/h 41.7 km/h 64 % 0 mm 570.0 W/m2 CLR
10:27 -4.7 °C -8.8 °C 34462.7 hPa NNW 51.8 km/h 51.8 km/h 63 % 0 mm 589.0 W/m2 CLR
10:32 -4.7 °C -8.8 °C 34462.7 hPa NW 47.6 km/h 47.6 km/h 63 % 0 mm 615.0 W/m2 CLR
10:37 -4.6 °C -8.9 °C 34462.7 hPa NW 38.8 km/h 38.8 km/h 62 % 0 mm 656.0 W/m2 CLR
10:42 -4.4 °C -8.8 °C 34462.7 hPa NW 44.7 km/h 44.7 km/h 61 % 0 mm 654.0 W/m2 CLR
10:47 -4.3 °C -8.9 °C 34452.6 hPa WNW 50.7 km/h 50.7 km/h 60 % 0 mm 663.0 W/m2 CLR
10:52 -4.3 °C -9 °C 34452.6 hPa NNW 47.6 km/h 47.6 km/h 59 % 0 mm 721.0 W/m2 CLR
10:57 -4.3 °C -9 °C 34452.6 hPa NNW 57 km/h 57 km/h 59 % 0 mm 777.0 W/m2 CLR
11:02 -4.1 °C -9.2 °C 34452.6 hPa NNW 62.6 km/h 62.6 km/h 57 % 0 mm 724.0 W/m2 CLR
11:07 -4.1 °C -9.2 °C 34452.6 hPa NNW 54.4 km/h 54.4 km/h 57 % 0 mm 889.0 W/m2 CLR
11:12 -4.2 °C -9.1 °C 34452.6 hPa NNW 62.6 km/h 62.6 km/h 58 % 0 mm 923.0 W/m2 CLR
11:17 -4.1 °C -9.1 °C 34452.6 hPa NNW 50.7 km/h 50.7 km/h 58 % 0 mm 410.0 W/m2 CLR
11:23 -4.3 °C -9.1 °C 34452.6 hPa NW 56.6 km/h 56.6 km/h 59 % 0 mm 410.0 W/m2 CLR
11:28 -4.2 °C -9 °C 34452.6 hPa WNW 57 km/h 57 km/h 59 % 0 mm 798.0 W/m2 CLR
11:33 -4 °C -8.8 °C 34452.6 hPa NW 46.7 km/h 46.7 km/h 59 % 0 mm 786.0 W/m2 CLR
11:38 -3.9 °C -8.7 °C 34452.6 hPa WNW 47.6 km/h 47.6 km/h 59 % 0 mm 796.0 W/m2 CLR
11:43 -3.9 °C -8.9 °C 34452.6 hPa West 47.6 km/h 47.6 km/h 57 % 0 mm 831.0 W/m2 CLR
11:48 -3.8 °C -9 °C 34452.6 hPa West 68.6 km/h 68.6 km/h 56 % 0 mm 824.0 W/m2 CLR
11:53 -3.8 °C -9 °C 34452.6 hPa NW 62.6 km/h 62.6 km/h 56 % 0 mm 805.0 W/m2 CLR
11:58 -3.8 °C -9.3 °C 34452.6 hPa NNW 65.5 km/h 65.5 km/h 54 % 0 mm 817.0 W/m2 CLR
12:03 -3.8 °C -9.1 °C 34462.7 hPa WNW 56.6 km/h 56.6 km/h 56 % 0 mm 833.0 W/m2 CLR
12:08 -3.8 °C -9.1 °C 34452.6 hPa WNW 68.6 km/h 68.6 km/h 56 % 0 mm 826.0 W/m2 CLR
12:13 -3.8 °C -9 °C 34452.6 hPa WNW 59.5 km/h 59.5 km/h 56 % 0 mm 831.0 W/m2 CLR
12:18 -3.7 °C -8.7 °C 34452.6 hPa NW 38.8 km/h 38.8 km/h 57 % 0 mm 842.0 W/m2 CLR
12:23 -3.4 °C -9 °C 34452.6 hPa NNW 62.6 km/h 62.6 km/h 54 % 0 mm 867.0 W/m2 CLR
12:28 -3.5 °C -9.1 °C 34452.6 hPa WNW 56.6 km/h 56.6 km/h 54 % 0 mm 860.0 W/m2 CLR
12:33 -3.6 °C -9.1 °C 34452.6 hPa NW 59.5 km/h 59.5 km/h 54 % 0 mm 863.0 W/m2 CLR
12:38 -3.6 °C -9 °C 34452.6 hPa NNW 53.6 km/h 53.6 km/h 55 % 0 mm 865.0 W/m2 CLR
12:43 -3.3 °C -8.6 °C 34442.4 hPa WNW 50.7 km/h 50.7 km/h 56 % 0 mm 870.0 W/m2 CLR
12:48 -3.3 °C -9.1 °C 34442.4 hPa WNW 62.6 km/h 62.6 km/h 53 % 0 mm 889.0 W/m2 CLR
12:53 -3.3 °C -8.8 °C 34442.4 hPa NW 74.5 km/h 74.5 km/h 54 % 0 mm 914.0 W/m2 CLR
12:58 -3.2 °C -8.9 °C 34442.4 hPa NW 59.5 km/h 59.5 km/h 53 % 0 mm 896.0 W/m2 CLR
13:03 -3.2 °C -9.1 °C 34442.4 hPa NNW 56.6 km/h 56.6 km/h 52 % 0 mm 900.0 W/m2 CLR
13:08 -3.2 °C -9.1 °C 34442.4 hPa NW 65.5 km/h 65.5 km/h 52 % 0 mm 918.0 W/m2 CLR
13:13 -3.1 °C -9.2 °C 34442.4 hPa NNW 62.6 km/h 62.6 km/h 51 % 0 mm 907.0 W/m2 CLR
13:18 -3.2 °C -9.2 °C 34442.4 hPa NW 56.6 km/h 56.6 km/h 51 % 0 mm 912.0 W/m2 CLR
13:23 -3.1 °C -9.3 °C 34428.8 hPa NNW 74.5 km/h 74.5 km/h 50 % 0 mm 925.0 W/m2 CLR
13:28 -2.9 °C -9.2 °C 34428.8 hPa NNW 53.6 km/h 53.6 km/h 50 % 0 mm 923.0 W/m2 CLR
13:33 -2.9 °C -9.4 °C 34442.4 hPa NNW 68.6 km/h 68.6 km/h 49 % 0 mm 919.0 W/m2 CLR
13:38 -2.9 °C -9.4 °C 34428.8 hPa WNW 74.5 km/h 74.5 km/h 49 % 0 mm 921.0 W/m2 CLR
13:43 -2.9 °C -9.4 °C 34428.8 hPa North 68.6 km/h 68.6 km/h 49 % 0 mm 932.0 W/m2 CLR
13:48 -2.8 °C -9.7 °C 34428.8 hPa NW 57 km/h 57 km/h 47 % 0 mm 933.0 W/m2 CLR
13:49 -2.8 °C -9.7 °C 34428.8 hPa NNW 53.6 km/h 53.6 km/h 47 % 0 mm 933.0 W/m2 CLR
13:54 -2.8 °C -9.6 °C 34428.8 hPa NW 65.5 km/h 65.5 km/h 47 % 0 mm 926.0 W/m2 CLR
13:59 -2.8 °C -9.4 °C 34428.8 hPa NNW 74.5 km/h 74.5 km/h 48 % 0 mm 932.0 W/m2 CLR
14:04 -2.8 °C -9.6 °C 34428.8 hPa NNW 56.6 km/h 56.6 km/h 47 % 0 mm 935.0 W/m2 CLR
14:09 -2.6 °C -9.4 °C 34428.8 hPa NW 68.6 km/h 68.6 km/h 47 % 0 mm 933.0 W/m2 CLR
14:14 -2.7 °C -9.7 °C 34428.8 hPa NW 62.6 km/h 62.6 km/h 46 % 0 mm 928.0 W/m2 CLR
14:19 -2.6 °C -9.6 °C 34428.8 hPa WNW 62.1 km/h 62.1 km/h 46 % 0 mm 933.0 W/m2 CLR
14:24 -2.6 °C -9.6 °C 34418.7 hPa NW 62.6 km/h 62.6 km/h 46 % 0 mm 928.0 W/m2 CLR
14:29 -2.5 °C -9.7 °C 34428.8 hPa NNW 56.6 km/h 56.6 km/h 45 % 0 mm 928.0 W/m2 CLR
14:34 -2.4 °C -10.1 °C 34418.7 hPa NNW 77.4 km/h 77.4 km/h 43 % 0 mm 926.0 W/m2 CLR
14:39 -2.4 °C -9.9 °C 34418.7 hPa NW 53.6 km/h 53.6 km/h 44 % 0 mm 921.0 W/m2 CLR
14:44 -2.4 °C -9.8 °C 34418.7 hPa North 59.5 km/h 59.5 km/h 44 % 0 mm 919.0 W/m2 CLR
14:49 -2.3 °C -10.2 °C 34418.7 hPa WNW 56.6 km/h 56.6 km/h 42 % 0 mm 916.0 W/m2 CLR
14:54 -2.2 °C -10.3 °C 34418.7 hPa WNW 77.4 km/h 77.4 km/h 41 % 0 mm 912.0 W/m2 CLR
14:59 -2.2 °C -10.3 °C 34418.7 hPa North 80.5 km/h 80.5 km/h 41 % 0 mm 911.0 W/m2 CLR
15:04 -2.3 °C -10.3 °C 34418.7 hPa NNW 65.5 km/h 65.5 km/h 41 % 0 mm 904.0 W/m2 CLR
15:09 -2.1 °C -10.2 °C 34418.7 hPa NW 68.6 km/h 68.6 km/h 41 % 0 mm 900.0 W/m2 CLR
15:14 -2.1 °C -10.2 °C 34418.7 hPa North 56.6 km/h 56.6 km/h 41 % 0 mm 898.0 W/m2 CLR
15:19 -2.1 °C -9.9 °C 34405.1 hPa WNW 56.6 km/h 56.6 km/h 42 % 0 mm 891.0 W/m2 CLR
15:24 -2.1 °C -9.8 °C 34405.1 hPa NNW 54.4 km/h 54.4 km/h 43 % 0 mm 886.0 W/m2 CLR
15:29 -2 °C -9.8 °C 34405.1 hPa NW 59.5 km/h 59.5 km/h 42 % 0 mm 879.0 W/m2 CLR
15:34 -1.9 °C -10.1 °C 34405.1 hPa NNW 47.6 km/h 47.6 km/h 41 % 0 mm 872.0 W/m2 CLR
15:39 -2 °C -10.2 °C 34405.1 hPa NW 65.5 km/h 65.5 km/h 40 % 0 mm 868.0 W/m2 CLR
15:44 -2.1 °C -10.1 °C 34405.1 hPa NW 64.7 km/h 64.7 km/h 41 % 0 mm 861.0 W/m2 CLR
15:49 -2.1 °C -10.2 °C 34395 hPa NW 47.6 km/h 47.6 km/h 41 % 0 mm 854.0 W/m2 CLR
15:54 -1.8 °C -10.4 °C 34395 hPa WNW 65.5 km/h 65.5 km/h 39 % 0 mm 846.0 W/m2 CLR
15:59 -1.8 °C -10.4 °C 34395 hPa NNW 77.4 km/h 77.4 km/h 39 % 0 mm 838.0 W/m2 CLR
16:04 -2.1 °C -10.5 °C 34405.1 hPa NW 80.5 km/h 80.5 km/h 39 % 0 mm 828.0 W/m2 CLR
16:09 -2.1 °C -10.1 °C 34405.1 hPa NW 49.2 km/h 49.2 km/h 41 % 0 mm 816.0 W/m2 CLR
16:10 -2 °C -10.5 °C 34395 hPa WNW 74.5 km/h 74.5 km/h 39 % 0 mm 816.0 W/m2 CLR
16:15 -2 °C -10.7 °C 34405.1 hPa NNW 71.5 km/h 71.5 km/h 38 % 0 mm 809.0 W/m2 CLR
16:20 -2.1 °C -10.6 °C 34405.1 hPa WNW 74.5 km/h 74.5 km/h 39 % 0 mm 798.0 W/m2 CLR
16:25 -2.1 °C -10.6 °C 34405.1 hPa NNW 77.4 km/h 77.4 km/h 39 % 0 mm 791.0 W/m2 CLR
16:30 -2.1 °C -10.3 °C 34405.1 hPa NNW 68.6 km/h 68.6 km/h 40 % 0 mm 780.0 W/m2 CLR
16:35 -2.1 °C -10.3 °C 34395 hPa NNW 68.6 km/h 68.6 km/h 40 % 0 mm 768.0 W/m2 CLR
16:40 -2.1 °C -10.4 °C 34395 hPa NNW 59.5 km/h 59.5 km/h 40 % 0 mm 756.0 W/m2 CLR
16:45 -2 °C -10.2 °C 34395 hPa WNW 62.6 km/h 62.6 km/h 40 % 0 mm 745.0 W/m2 CLR
16:50 -1.9 °C -10.7 °C 34395 hPa NNW 59.5 km/h 59.5 km/h 38 % 0 mm 738.0 W/m2 CLR
16:55 -1.9 °C -10.9 °C 34395 hPa NW 65.5 km/h 65.5 km/h 37 % 0 mm 726.0 W/m2 CLR
17:00 -2 °C -11.2 °C 34395 hPa NNW 68.6 km/h 68.6 km/h 36 % 0 mm 712.0 W/m2 CLR
17:05 -1.9 °C -11.1 °C 34395 hPa NW 68.6 km/h 68.6 km/h 36 % 0 mm 701.0 W/m2 CLR
17:10 -1.8 °C -11.1 °C 34384.8 hPa NW 53.6 km/h 53.6 km/h 36 % 0 mm 689.0 W/m2 CLR
17:15 -1.8 °C -11.1 °C 34384.8 hPa NW 62.6 km/h 62.6 km/h 36 % 0 mm 675.0 W/m2 CLR
17:20 -1.8 °C -10.8 °C 34395 hPa NW 53.6 km/h 53.6 km/h 37 % 0 mm 661.0 W/m2 CLR
17:25 -1.8 °C -10.8 °C 34384.8 hPa NNW 53.6 km/h 53.6 km/h 37 % 0 mm 650.0 W/m2 CLR
17:40 -2 °C -11.2 °C 34384.8 hPa NW 67.3 km/h 67.3 km/h 36 % 0 mm 608.0 W/m2 OVC
17:45 -1.9 °C -11.1 °C 34384.8 hPa NNW 67.3 km/h 67.3 km/h 36 % 0 mm 592.0 W/m2 CLR
17:50 -2 °C -11.2 °C 34384.8 hPa NNW 72.6 km/h 72.6 km/h 36 % 0 mm 580.0 W/m2 CLR
17:55 -2.1 °C -10.7 °C 34384.8 hPa NNW 69.8 km/h 69.8 km/h 38 % 0 mm 563.0 W/m2 CLR
18:00 -2.1 °C -11 °C 34395 hPa NNW 67.3 km/h 67.3 km/h 37 % 0 mm 554.0 W/m2 CLR
18:05 -2.2 °C -11.3 °C 34384.8 hPa NW 69.8 km/h 69.8 km/h 36 % 0 mm 536.0 W/m2 CLR
18:10 -2.2 °C -10.9 °C 34384.8 hPa NNW 59.5 km/h 59.5 km/h 38 % 0 mm 520.0 W/m2 CLR
18:16 -2.2 °C -10.9 °C 34384.8 hPa NW 74.5 km/h 74.5 km/h 38 % 0 mm 506.0 W/m2 CLR
18:21 -2.3 °C -10.5 °C 34384.8 hPa NW 50.7 km/h 50.7 km/h 40 % 0 mm 492.0 W/m2 CLR
18:26 -2.2 °C -10.7 °C 34395 hPa NNW 69.8 km/h 69.8 km/h 39 % 0 mm 480.0 W/m2 CLR
18:31 -2.3 °C -10.8 °C 34395 hPa NNW 68.6 km/h 68.6 km/h 39 % 0 mm 461.0 W/m2 CLR
18:36 -2.4 °C -10.6 °C 34395 hPa NNW 77.4 km/h 77.4 km/h 40 % 0 mm 443.0 W/m2 CLR
18:41 -2.4 °C -10.7 °C 34384.8 hPa NNW 68.6 km/h 68.6 km/h 40 % 0 mm 434.0 W/m2 CLR
18:46 -2.3 °C -10.8 °C 34384.8 hPa WNW 50.7 km/h 50.7 km/h 39 % 0 mm 415.0 W/m2 CLR
18:51 -2.4 °C -10.8 °C 34395 hPa NW 67.3 km/h 67.3 km/h 39 % 0 mm 396.0 W/m2 CLR
18:56 -2.6 °C -11 °C 34395 hPa NNW 68.6 km/h 68.6 km/h 39 % 0 mm 383.0 W/m2 CLR
19:01 -2.6 °C -10.8 °C 34395 hPa NW 50.7 km/h 50.7 km/h 40 % 0 mm 364.0 W/m2 CLR
19:06 -2.7 °C -10.9 °C 34395 hPa NW 64.7 km/h 64.7 km/h 40 % 0 mm 350.0 W/m2 CLR
19:11 -2.7 °C -10.9 °C 34395 hPa NW 62.6 km/h 62.6 km/h 40 % 0 mm 336.0 W/m2 CLR
19:16 -2.7 °C -10.9 °C 34384.8 hPa WNW 44.7 km/h 44.7 km/h 40 % 0 mm 318.0 W/m2 CLR
19:21 -2.7 °C -10.7 °C 34384.8 hPa NW 62.6 km/h 62.6 km/h 41 % 0 mm 302.0 W/m2 CLR
19:26 -2.7 °C -10.7 °C 34384.8 hPa NNW 80.5 km/h 80.5 km/h 41 % 0 mm 287.0 W/m2 CLR
19:31 -2.8 °C -10.8 °C 34384.8 hPa NW 77.7 km/h 77.7 km/h 41 % 0 mm 267.0 W/m2 CLR
19:36 -2.9 °C -10.7 °C 34395 hPa NW 68.6 km/h 68.6 km/h 42 % 0 mm 253.0 W/m2 CLR
19:41 -3 °C -10.7 °C 34395 hPa NW 68.6 km/h 68.6 km/h 42 % 0 mm 237.0 W/m2 CLR
19:46 -2.9 °C -10.7 °C 34395 hPa NW 62.1 km/h 62.1 km/h 42 % 0 mm 220.0 W/m2 CLR
19:51 -2.9 °C -10.7 °C 34395 hPa NNW 50.7 km/h 50.7 km/h 42 % 0 mm 202.0 W/m2 CLR
19:56 -3 °C -11 °C 34395 hPa NNW 68.6 km/h 68.6 km/h 41 % 0 mm 185.0 W/m2 CLR
20:01 -3.2 °C -10.9 °C 34395 hPa NNW 62.6 km/h 62.6 km/h 42 % 0 mm 163.0 W/m2 CLR
20:06 -3.2 °C -10.8 °C 34395 hPa NW 41.7 km/h 41.7 km/h 43 % 0 mm 149.0 W/m2 CLR
20:11 -3.2 °C -10.8 °C 34395 hPa NW 50.7 km/h 50.7 km/h 43 % 0 mm 134.0 W/m2 CLR
20:16 -3.3 °C -10.7 °C 34395 hPa NW 50.7 km/h 50.7 km/h 44 % 0 mm 114.0 W/m2 CLR
20:21 -3.4 °C -10.7 °C 34405.1 hPa WNW 44.7 km/h 44.7 km/h 44 % 0 mm 98.0 W/m2 CLR
20:26 -3.4 °C -10.6 °C 34405.1 hPa NNW 50.7 km/h 50.7 km/h 45 % 0 mm 84.0 W/m2 FEW
20:31 -3.6 °C -10.7 °C 34405.1 hPa NW 62.1 km/h 62.1 km/h 45 % 0 mm 70.0 W/m2 FEW
20:36 -3.7 °C -10.6 °C 34405.1 hPa NNW 65.5 km/h 65.5 km/h 46 % 0 mm 56.0 W/m2 SCT
20:41 -3.8 °C -10.7 °C 34405.1 hPa NW 65.5 km/h 65.5 km/h 46 % 0 mm 42.0 W/m2 BKN
20:46 -3.9 °C -10.4 °C 34405.1 hPa NNW 71.5 km/h 71.5 km/h 48 % 0 mm 33.0 W/m2 BKN
20:51 -4 °C -10.5 °C 34405.1 hPa NW 54.4 km/h 54.4 km/h 48 % 0 mm 25.0 W/m2 BKN
20:56 -4.1 °C -10.8 °C 34418.7 hPa NW 71.5 km/h 71.5 km/h 47 % 0 mm 18.0 W/m2 BKN
21:01 -4.2 °C -10.9 °C 34418.7 hPa WNW 56.6 km/h 56.6 km/h 47 % 0 mm 12.0 W/m2 BKN
21:06 -4.3 °C -10.8 °C 34418.7 hPa NW 59.5 km/h 59.5 km/h 48 % 0 mm 11.0 W/m2 BKN
21:11 -4.3 °C -10.9 °C 34418.7 hPa NW 62.6 km/h 62.6 km/h 48 % 0 mm 9.0 W/m2 BKN
21:16 -4.4 °C -10.7 °C 34418.7 hPa WNW 59.5 km/h 59.5 km/h 49 % 0 mm 7.0 W/m2 BKN
21:21 -4.5 °C -10.8 °C 34418.7 hPa NW 68.6 km/h 68.6 km/h 49 % 0 mm 5.0 W/m2 OVC
21:26 -4.6 °C -10.7 °C 34418.7 hPa NW 59.5 km/h 59.5 km/h 50 % 0 mm 0.0 W/m2 OVC
21:32 -4.6 °C -10.8 °C 34428.8 hPa NNW 50.7 km/h 50.7 km/h 50 % 0 mm 0.0 W/m2 OVC
21:37 -4.7 °C -10.8 °C 34428.8 hPa NW 68.6 km/h 68.6 km/h 50 % 0 mm 0.0 W/m2 CLR
21:42 -4.7 °C -10.7 °C 34428.8 hPa NW 44.7 km/h 44.7 km/h 51 % 0 mm 0.0 W/m2 CLR
21:47 -4.8 °C -10.8 °C 34428.8 hPa NW 53.6 km/h 53.6 km/h 51 % 0 mm 0.0 W/m2 CLR
21:52 -4.8 °C -10.8 °C 34428.8 hPa WNW 41.7 km/h 41.7 km/h 51 % 0 mm 0.0 W/m2 CLR
21:57 -4.9 °C -10.7 °C 34428.8 hPa NW 62.6 km/h 62.6 km/h 52 % 0 mm 0.0 W/m2 CLR
22:02 -5 °C -10.8 °C 34428.8 hPa WNW 68.6 km/h 68.6 km/h 52 % 0 mm 0.0 W/m2 CLR
22:07 -5.1 °C -10.7 °C 34442.4 hPa NW 50.7 km/h 50.7 km/h 53 % 0 mm 0.0 W/m2 CLR
22:12 -5.2 °C -10.6 °C 34442.4 hPa NW 51.8 km/h 51.8 km/h 54 % 0 mm 0.0 W/m2 CLR
22:17 -5.2 °C -10.5 °C 34442.4 hPa NW 50.7 km/h 50.7 km/h 55 % 0 mm 0.0 W/m2 CLR
22:22 -5.3 °C -10.6 °C 34452.6 hPa WNW 47.6 km/h 47.6 km/h 55 % 0 mm 0.0 W/m2 CLR
22:27 -5.3 °C -10.6 °C 34452.6 hPa NW 62.6 km/h 62.6 km/h 55 % 0 mm 0.0 W/m2 CLR
22:32 -5.4 °C -10.5 °C 34452.6 hPa WNW 35.7 km/h 35.7 km/h 56 % 0 mm 0.0 W/m2 CLR
22:37 -5.4 °C -10.6 °C 34452.6 hPa West 59.5 km/h 59.5 km/h 56 % 0 mm 0.0 W/m2 CLR
22:42 -5.4 °C -10.4 °C 34452.6 hPa NW 50.7 km/h 50.7 km/h 57 % 0 mm 0.0 W/m2 CLR
22:47 -5.5 °C -10.4 °C 34452.6 hPa NW 47.6 km/h 47.6 km/h 57 % 0 mm 0.0 W/m2 CLR
22:52 -5.5 °C -10.3 °C 34452.6 hPa WNW 44.7 km/h 44.7 km/h 58 % 0 mm 0.0 W/m2 CLR
22:57 -5.6 °C -10.4 °C 34462.7 hPa WNW 50.7 km/h 50.7 km/h 58 % 0 mm 0.0 W/m2 CLR
23:02 -5.6 °C -10.4 °C 34462.7 hPa WNW 41.7 km/h 41.7 km/h 58 % 0 mm 0.0 W/m2 CLR
23:07 -5.7 °C -10.3 °C 34462.7 hPa WNW 44.7 km/h 44.7 km/h 59 % 0 mm 0.0 W/m2 CLR
23:12 -5.8 °C -10.4 °C 34462.7 hPa WNW 41.7 km/h 41.7 km/h 59 % 0 mm 0.0 W/m2 CLR
23:17 -5.8 °C -10.3 °C 34462.7 hPa WNW 47.6 km/h 47.6 km/h 60 % 0 mm 0.0 W/m2 CLR
23:22 -5.9 °C -10.4 °C 34462.7 hPa WNW 59.5 km/h 59.5 km/h 60 % 0 mm 0.0 W/m2 CLR
23:27 -5.9 °C -10.3 °C 34462.7 hPa NW 44.7 km/h 44.7 km/h 61 % 0 mm 0.0 W/m2 CLR
23:32 -6 °C -10.4 °C 34462.7 hPa NW 71.5 km/h 71.5 km/h 61 % 0 mm 0.0 W/m2 CLR
23:37 -6.1 °C -10.3 °C 34462.7 hPa WNW 50.7 km/h 50.7 km/h 62 % 0 mm 0.0 W/m2 CLR
23:42 -6.1 °C -10.3 °C 34462.7 hPa West 53.6 km/h 53.6 km/h 62 % 0 mm 0.0 W/m2 CLR
23:47 -6.2 °C -10.4 °C 34476.3 hPa WNW 53.6 km/h 53.6 km/h 62 % 0 mm 0.0 W/m2 CLR
23:52 -6.2 °C -10.3 °C 34476.3 hPa WNW 72.6 km/h 72.6 km/h 63 % 0 mm 0.0 W/m2 CLR
23:57 -6.3 °C -10.3 °C 34476.3 hPa WNW 53.6 km/h 53.6 km/h 63 % 0 mm 0.0 W/m2 CLR
Lo Temps de Massalio
Compliments of Weather Underground - 1.25 mb